sensor_id;sensor_type;location;lat;lon;timestamp;P1;durP1;ratioP1;P2;durP2;ratioP2
29854;SDS011;16733;48.738;9.106;2022-08-19T00:04:53;11.10;;;6.43;;
29854;SDS011;16733;48.738;9.106;2022-08-19T00:07:19;11.05;;;6.82;;
29854;SDS011;16733;48.738;9.106;2022-08-19T00:09:45;13.65;;;7.35;;
29854;SDS011;16733;48.738;9.106;2022-08-19T00:15:32;14.05;;;6.75;;
29854;SDS011;16733;48.738;9.106;2022-08-19T00:17:58;14.02;;;6.78;;
29854;SDS011;16733;48.738;9.106;2022-08-19T00:20:23;11.95;;;6.35;;
29854;SDS011;16733;48.738;9.106;2022-08-19T00:22:49;12.45;;;6.72;;
29854;SDS011;16733;48.738;9.106;2022-08-19T00:25:15;11.57;;;6.28;;
29854;SDS011;16733;48.738;9.106;2022-08-19T00:27:41;12.00;;;7.05;;
29854;SDS011;16733;48.738;9.106;2022-08-19T00:46:57;10.90;;;6.13;;
29854;SDS011;16733;48.738;9.106;2022-08-19T00:52:48;11.73;;;6.13;;
29854;SDS011;16733;48.738;9.106;2022-08-19T00:55:16;15.18;;;6.60;;
29854;SDS011;16733;48.738;9.106;2022-08-19T01:01:08;13.02;;;7.07;;
29854;SDS011;16733;48.738;9.106;2022-08-19T01:03:34;12.35;;;6.97;;
29854;SDS011;16733;48.738;9.106;2022-08-19T01:06:00;14.93;;;7.07;;
29854;SDS011;16733;48.738;9.106;2022-08-19T01:08:26;14.60;;;6.90;;
29854;SDS011;16733;48.738;9.106;2022-08-19T01:10:55;12.95;;;6.97;;
29854;SDS011;16733;48.738;9.106;2022-08-19T01:13:23;12.93;;;6.75;;
29854;SDS011;16733;48.738;9.106;2022-08-19T01:15:55;12.95;;;6.60;;
29854;SDS011;16733;48.738;9.106;2022-08-19T01:18:24;14.27;;;7.25;;
29854;SDS011;16733;48.738;9.106;2022-08-19T01:20:51;12.57;;;6.95;;
29854;SDS011;16733;48.738;9.106;2022-08-19T01:23:20;14.27;;;7.88;;
29854;SDS011;16733;48.738;9.106;2022-08-19T01:25:48;13.75;;;7.47;;
29854;SDS011;16733;48.738;9.106;2022-08-19T01:35:03;13.15;;;7.22;;
29854;SDS011;16733;48.738;9.106;2022-08-19T01:37:30;12.98;;;7.65;;
29854;SDS011;16733;48.738;9.106;2022-08-19T01:40:06;12.25;;;6.97;;
29854;SDS011;16733;48.738;9.106;2022-08-19T01:45:55;15.93;;;7.43;;
29854;SDS011;16733;48.738;9.106;2022-08-19T01:48:20;12.50;;;6.82;;
29854;SDS011;16733;48.738;9.106;2022-08-19T01:50:46;15.00;;;7.63;;
29854;SDS011;16733;48.738;9.106;2022-08-19T01:56:34;12.07;;;7.00;;
29854;SDS011;16733;48.738;9.106;2022-08-19T01:59:02;15.90;;;7.55;;
29854;SDS011;16733;48.738;9.106;2022-08-19T02:04:53;13.63;;;7.60;;
29854;SDS011;16733;48.738;9.106;2022-08-19T02:07:19;13.68;;;7.45;;
29854;SDS011;16733;48.738;9.106;2022-08-19T02:13:11;16.10;;;7.93;;
29854;SDS011;16733;48.738;9.106;2022-08-19T02:15:38;13.65;;;7.70;;
29854;SDS011;16733;48.738;9.106;2022-08-19T02:21:27;12.98;;;6.88;;
29854;SDS011;16733;48.738;9.106;2022-08-19T02:23:53;21.33;;;7.50;;
29854;SDS011;16733;48.738;9.106;2022-08-19T02:26:20;12.90;;;7.13;;
29854;SDS011;16733;48.738;9.106;2022-08-19T02:28:46;16.45;;;7.80;;
29854;SDS011;16733;48.738;9.106;2022-08-19T02:31:14;16.35;;;8.75;;
29854;SDS011;16733;48.738;9.106;2022-08-19T02:33:43;13.82;;;7.47;;
29854;SDS011;16733;48.738;9.106;2022-08-19T02:36:10;14.52;;;7.95;;
29854;SDS011;16733;48.738;9.106;2022-08-19T02:41:58;15.88;;;7.70;;
29854;SDS011;16733;48.738;9.106;2022-08-19T02:44:24;14.43;;;8.13;;
29854;SDS011;16733;48.738;9.106;2022-08-19T02:57:09;15.35;;;8.13;;
29854;SDS011;16733;48.738;9.106;2022-08-19T03:02:57;17.75;;;9.13;;
29854;SDS011;16733;48.738;9.106;2022-08-19T03:05:23;15.18;;;8.30;;
29854;SDS011;16733;48.738;9.106;2022-08-19T03:07:49;14.88;;;8.43;;
29854;SDS011;16733;48.738;9.106;2022-08-19T03:13:37;16.08;;;8.88;;
29854;SDS011;16733;48.738;9.106;2022-08-19T03:19:25;16.08;;;8.75;;
29854;SDS011;16733;48.738;9.106;2022-08-19T03:21:50;19.52;;;9.45;;
29854;SDS011;16733;48.738;9.106;2022-08-19T03:24:16;15.75;;;9.02;;
29854;SDS011;16733;48.738;9.106;2022-08-19T03:30:05;18.83;;;8.82;;
29854;SDS011;16733;48.738;9.106;2022-08-19T03:36:10;17.60;;;9.43;;
29854;SDS011;16733;48.738;9.106;2022-08-19T03:38:40;18.10;;;10.40;;
29854;SDS011;16733;48.738;9.106;2022-08-19T03:41:09;21.33;;;9.63;;
29854;SDS011;16733;48.738;9.106;2022-08-19T03:43:37;19.20;;;10.10;;
29854;SDS011;16733;48.738;9.106;2022-08-19T03:49:27;18.25;;;9.45;;
29854;SDS011;16733;48.738;9.106;2022-08-19T03:58:38;15.63;;;9.82;;
29854;SDS011;16733;48.738;9.106;2022-08-19T04:01:07;22.67;;;11.07;;
29854;SDS011;16733;48.738;9.106;2022-08-19T04:06:57;18.85;;;10.10;;
29854;SDS011;16733;48.738;9.106;2022-08-19T04:09:23;16.45;;;9.35;;
29854;SDS011;16733;48.738;9.106;2022-08-19T04:11:50;19.15;;;9.40;;
29854;SDS011;16733;48.738;9.106;2022-08-19T04:14:31;18.20;;;9.27;;
29854;SDS011;16733;48.738;9.106;2022-08-19T04:16:58;19.38;;;10.05;;
29854;SDS011;16733;48.738;9.106;2022-08-19T04:19:25;17.42;;;9.90;;
29854;SDS011;16733;48.738;9.106;2022-08-19T04:21:52;18.88;;;9.55;;
29854;SDS011;16733;48.738;9.106;2022-08-19T04:24:19;21.30;;;10.50;;
29854;SDS011;16733;48.738;9.106;2022-08-19T04:27:00;21.25;;;10.82;;
29854;SDS011;16733;48.738;9.106;2022-08-19T04:29:26;20.70;;;10.77;;
29854;SDS011;16733;48.738;9.106;2022-08-19T04:31:55;19.23;;;10.80;;
29854;SDS011;16733;48.738;9.106;2022-08-19T04:34:23;20.55;;;10.25;;
29854;SDS011;16733;48.738;9.106;2022-08-19T04:40:13;19.38;;;10.23;;
29854;SDS011;16733;48.738;9.106;2022-08-19T04:42:57;20.05;;;10.38;;
29854;SDS011;16733;48.738;9.106;2022-08-19T04:45:23;19.13;;;10.93;;
29854;SDS011;16733;48.738;9.106;2022-08-19T04:47:49;22.88;;;11.48;;
29854;SDS011;16733;48.738;9.106;2022-08-19T04:57:06;21.67;;;11.07;;
29854;SDS011;16733;48.738;9.106;2022-08-19T04:59:33;22.05;;;11.02;;
29854;SDS011;16733;48.738;9.106;2022-08-19T05:05:22;20.42;;;10.63;;
29854;SDS011;16733;48.738;9.106;2022-08-19T05:07:47;19.98;;;11.15;;
29854;SDS011;16733;48.738;9.106;2022-08-19T05:13:35;26.40;;;10.25;;
29854;SDS011;16733;48.738;9.106;2022-08-19T05:16:00;19.05;;;10.98;;
29854;SDS011;16733;48.738;9.106;2022-08-19T05:18:26;20.83;;;10.77;;
29854;SDS011;16733;48.738;9.106;2022-08-19T05:21:11;24.33;;;11.60;;
29854;SDS011;16733;48.738;9.106;2022-08-19T05:23:58;20.55;;;10.73;;
29854;SDS011;16733;48.738;9.106;2022-08-19T05:26:24;23.38;;;11.57;;
29854;SDS011;16733;48.738;9.106;2022-08-19T05:28:53;18.63;;;10.70;;
29854;SDS011;16733;48.738;9.106;2022-08-19T05:35:19;22.38;;;11.60;;
29854;SDS011;16733;48.738;9.106;2022-08-19T05:37:44;23.95;;;11.63;;
29854;SDS011;16733;48.738;9.106;2022-08-19T05:40:10;21.40;;;10.90;;
29854;SDS011;16733;48.738;9.106;2022-08-19T05:42:36;18.73;;;10.98;;
29854;SDS011;16733;48.738;9.106;2022-08-19T05:45:02;22.17;;;12.15;;
29854;SDS011;16733;48.738;9.106;2022-08-19T05:47:29;22.67;;;10.60;;
29854;SDS011;16733;48.738;9.106;2022-08-19T05:53:17;25.60;;;12.75;;
29854;SDS011;16733;48.738;9.106;2022-08-19T05:55:42;18.13;;;9.57;;
29854;SDS011;16733;48.738;9.106;2022-08-19T05:58:08;20.85;;;11.40;;
29854;SDS011;16733;48.738;9.106;2022-08-19T06:03:57;22.02;;;10.70;;
29854;SDS011;16733;48.738;9.106;2022-08-19T06:06:22;20.00;;;11.10;;
29854;SDS011;16733;48.738;9.106;2022-08-19T06:12:10;20.17;;;10.40;;
29854;SDS011;16733;48.738;9.106;2022-08-19T06:14:36;21.55;;;10.88;;
29854;SDS011;16733;48.738;9.106;2022-08-19T06:17:02;18.48;;;9.75;;
29854;SDS011;16733;48.738;9.106;2022-08-19T06:19:28;20.88;;;10.40;;
29854;SDS011;16733;48.738;9.106;2022-08-19T06:21:55;20.00;;;11.10;;
29854;SDS011;16733;48.738;9.106;2022-08-19T06:27:45;20.20;;;10.65;;
29854;SDS011;16733;48.738;9.106;2022-08-19T06:30:11;20.58;;;10.60;;
29854;SDS011;16733;48.738;9.106;2022-08-19T06:32:37;20.40;;;10.95;;
29854;SDS011;16733;48.738;9.106;2022-08-19T06:35:03;22.98;;;10.27;;
29854;SDS011;16733;48.738;9.106;2022-08-19T06:37:29;20.45;;;10.10;;
29854;SDS011;16733;48.738;9.106;2022-08-19T06:39:55;21.80;;;11.65;;
29854;SDS011;16733;48.738;9.106;2022-08-19T06:42:21;21.88;;;10.63;;
29854;SDS011;16733;48.738;9.106;2022-08-19T06:44:47;18.65;;;10.15;;
29854;SDS011;16733;48.738;9.106;2022-08-19T06:47:14;20.00;;;11.18;;
29854;SDS011;16733;48.738;9.106;2022-08-19T06:49:42;21.30;;;10.43;;
29854;SDS011;16733;48.738;9.106;2022-08-19T06:55:29;24.45;;;11.70;;
29854;SDS011;16733;48.738;9.106;2022-08-19T07:01:18;20.50;;;10.95;;
29854;SDS011;16733;48.738;9.106;2022-08-19T07:03:45;21.35;;;10.68;;
29854;SDS011;16733;48.738;9.106;2022-08-19T07:09:33;21.98;;;11.05;;
29854;SDS011;16733;48.738;9.106;2022-08-19T07:12:02;22.85;;;10.80;;
29854;SDS011;16733;48.738;9.106;2022-08-19T07:17:51;19.33;;;10.85;;
29854;SDS011;16733;48.738;9.106;2022-08-19T07:20:17;25.80;;;11.05;;
29854;SDS011;16733;48.738;9.106;2022-08-19T07:26:09;21.23;;;11.35;;
29854;SDS011;16733;48.738;9.106;2022-08-19T07:28:56;23.95;;;11.45;;
29854;SDS011;16733;48.738;9.106;2022-08-19T07:38:07;19.13;;;10.52;;
29854;SDS011;16733;48.738;9.106;2022-08-19T07:40:33;23.65;;;10.85;;
29854;SDS011;16733;48.738;9.106;2022-08-19T07:42:58;19.90;;;10.05;;
29854;SDS011;16733;48.738;9.106;2022-08-19T07:45:24;20.48;;;10.70;;
29854;SDS011;16733;48.738;9.106;2022-08-19T07:47:50;21.15;;;10.95;;
29854;SDS011;16733;48.738;9.106;2022-08-19T07:50:16;16.10;;;9.98;;
29854;SDS011;16733;48.738;9.106;2022-08-19T07:52:44;22.05;;;10.68;;
29854;SDS011;16733;48.738;9.106;2022-08-19T07:55:11;15.18;;;9.45;;
29854;SDS011;16733;48.738;9.106;2022-08-19T08:04:21;24.27;;;10.45;;
29854;SDS011;16733;48.738;9.106;2022-08-19T08:13:50;17.83;;;9.77;;
29854;SDS011;16733;48.738;9.106;2022-08-19T08:19:38;17.15;;;10.02;;
29854;SDS011;16733;48.738;9.106;2022-08-19T08:22:06;19.02;;;10.25;;
29854;SDS011;16733;48.738;9.106;2022-08-19T08:27:54;16.55;;;9.68;;
29854;SDS011;16733;48.738;9.106;2022-08-19T08:30:22;15.98;;;9.90;;
29854;SDS011;16733;48.738;9.106;2022-08-19T08:36:11;17.15;;;9.02;;
29854;SDS011;16733;48.738;9.106;2022-08-19T08:38:38;21.38;;;10.45;;
29854;SDS011;16733;48.738;9.106;2022-08-19T08:43:56;16.75;;;10.13;;
29854;SDS011;16733;48.738;9.106;2022-08-19T08:55:30;15.77;;;9.60;;
29854;SDS011;16733;48.738;9.106;2022-08-19T08:58:07;16.95;;;9.38;;
29854;SDS011;16733;48.738;9.106;2022-08-19T09:04:04;17.10;;;9.60;;
29854;SDS011;16733;48.738;9.106;2022-08-19T09:06:36;17.73;;;9.63;;
29854;SDS011;16733;48.738;9.106;2022-08-19T09:09:18;16.58;;;9.20;;
29854;SDS011;16733;48.738;9.106;2022-08-19T09:11:59;15.82;;;9.75;;
29854;SDS011;16733;48.738;9.106;2022-08-19T09:18:09;14.25;;;8.25;;
29854;SDS011;16733;48.738;9.106;2022-08-19T09:20:36;17.45;;;9.40;;
29854;SDS011;16733;48.738;9.106;2022-08-19T09:23:02;15.80;;;8.43;;
29854;SDS011;16733;48.738;9.106;2022-08-19T09:25:29;16.95;;;9.55;;
29854;SDS011;16733;48.738;9.106;2022-08-19T09:27:56;13.05;;;7.97;;
29854;SDS011;16733;48.738;9.106;2022-08-19T09:30:24;18.95;;;9.20;;
29854;SDS011;16733;48.738;9.106;2022-08-19T09:32:53;13.88;;;8.57;;
29854;SDS011;16733;48.738;9.106;2022-08-19T09:38:42;18.42;;;8.90;;
29854;SDS011;16733;48.738;9.106;2022-08-19T09:41:11;16.35;;;8.80;;
29854;SDS011;16733;48.738;9.106;2022-08-19T09:43:40;16.45;;;8.70;;
29854;SDS011;16733;48.738;9.106;2022-08-19T09:49:28;15.77;;;8.60;;
29854;SDS011;16733;48.738;9.106;2022-08-19T09:51:54;18.15;;;7.80;;
29854;SDS011;16733;48.738;9.106;2022-08-19T09:54:21;12.73;;;8.07;;
29854;SDS011;16733;48.738;9.106;2022-08-19T09:56:46;13.70;;;7.90;;
29854;SDS011;16733;48.738;9.106;2022-08-19T10:02:41;21.92;;;8.82;;
29854;SDS011;16733;48.738;9.106;2022-08-19T10:08:30;15.32;;;8.23;;
29854;SDS011;16733;48.738;9.106;2022-08-19T10:11:10;14.93;;;7.57;;
29854;SDS011;16733;48.738;9.106;2022-08-19T10:13:35;16.77;;;7.28;;
29854;SDS011;16733;48.738;9.106;2022-08-19T10:16:03;13.52;;;7.53;;
29854;SDS011;16733;48.738;9.106;2022-08-19T10:18:33;9.80;;;6.43;;
29854;SDS011;16733;48.738;9.106;2022-08-19T10:21:04;11.85;;;6.15;;
29854;SDS011;16733;48.738;9.106;2022-08-19T10:23:33;13.35;;;7.53;;
29854;SDS011;16733;48.738;9.106;2022-08-19T10:26:00;14.98;;;7.43;;
29854;SDS011;16733;48.738;9.106;2022-08-19T10:28:26;13.27;;;6.82;;
29854;SDS011;16733;48.738;9.106;2022-08-19T10:30:51;9.73;;;6.47;;
29854;SDS011;16733;48.738;9.106;2022-08-19T10:33:17;12.18;;;6.55;;
29854;SDS011;16733;48.738;9.106;2022-08-19T10:35:43;13.32;;;6.40;;
29854;SDS011;16733;48.738;9.106;2022-08-19T10:38:11;12.95;;;6.45;;
29854;SDS011;16733;48.738;9.106;2022-08-19T10:40:37;11.02;;;6.20;;
29854;SDS011;16733;48.738;9.106;2022-08-19T10:43:03;10.52;;;6.35;;
29854;SDS011;16733;48.738;9.106;2022-08-19T10:45:28;13.85;;;6.25;;
29854;SDS011;16733;48.738;9.106;2022-08-19T10:47:54;11.82;;;5.88;;
29854;SDS011;16733;48.738;9.106;2022-08-19T10:50:20;10.00;;;5.70;;
29854;SDS011;16733;48.738;9.106;2022-08-19T10:53:05;15.52;;;6.15;;
29854;SDS011;16733;48.738;9.106;2022-08-19T10:55:33;14.27;;;5.80;;
29854;SDS011;16733;48.738;9.106;2022-08-19T10:58:19;10.63;;;5.57;;
29854;SDS011;16733;48.738;9.106;2022-08-19T11:04:16;12.82;;;6.07;;
29854;SDS011;16733;48.738;9.106;2022-08-19T11:06:47;10.40;;;6.00;;
29854;SDS011;16733;48.738;9.106;2022-08-19T11:09:14;15.75;;;7.15;;
29854;SDS011;16733;48.738;9.106;2022-08-19T11:11:45;15.63;;;6.57;;
29854;SDS011;16733;48.738;9.106;2022-08-19T11:14:13;11.10;;;5.63;;
29854;SDS011;16733;48.738;9.106;2022-08-19T11:16:43;10.52;;;5.25;;
29854;SDS011;16733;48.738;9.106;2022-08-19T11:19:10;11.20;;;5.15;;
29854;SDS011;16733;48.738;9.106;2022-08-19T11:21:38;9.70;;;4.82;;
29854;SDS011;16733;48.738;9.106;2022-08-19T11:27:27;11.65;;;6.00;;
29854;SDS011;16733;48.738;9.106;2022-08-19T11:40:00;9.88;;;5.15;;
29854;SDS011;16733;48.738;9.106;2022-08-19T11:42:25;10.27;;;5.35;;
29854;SDS011;16733;48.738;9.106;2022-08-19T11:51:54;14.95;;;6.20;;
29854;SDS011;16733;48.738;9.106;2022-08-19T11:54:20;10.50;;;5.88;;
29854;SDS011;16733;48.738;9.106;2022-08-19T11:56:45;13.32;;;6.55;;
29854;SDS011;16733;48.738;9.106;2022-08-19T12:02:34;13.88;;;5.70;;
29854;SDS011;16733;48.738;9.106;2022-08-19T12:05:00;9.02;;;5.75;;
29854;SDS011;16733;48.738;9.106;2022-08-19T12:07:28;13.85;;;5.10;;
29854;SDS011;16733;48.738;9.106;2022-08-19T12:09:56;10.45;;;5.75;;
29854;SDS011;16733;48.738;9.106;2022-08-19T12:12:21;11.98;;;6.20;;
29854;SDS011;16733;48.738;9.106;2022-08-19T12:14:49;10.70;;;4.95;;
29854;SDS011;16733;48.738;9.106;2022-08-19T12:17:21;9.98;;;6.20;;
29854;SDS011;16733;48.738;9.106;2022-08-19T12:19:47;7.43;;;4.40;;
29854;SDS011;16733;48.738;9.106;2022-08-19T12:22:13;8.13;;;4.72;;
29854;SDS011;16733;48.738;9.106;2022-08-19T12:24:39;8.93;;;4.20;;
29854;SDS011;16733;48.738;9.106;2022-08-19T12:27:04;11.10;;;5.05;;
29854;SDS011;16733;48.738;9.106;2022-08-19T12:29:30;11.77;;;6.43;;
29854;SDS011;16733;48.738;9.106;2022-08-19T12:31:56;11.23;;;5.93;;
29854;SDS011;16733;48.738;9.106;2022-08-19T12:37:48;6.93;;;4.13;;
29854;SDS011;16733;48.738;9.106;2022-08-19T12:40:15;6.30;;;3.92;;
29854;SDS011;16733;48.738;9.106;2022-08-19T12:46:05;7.53;;;4.93;;
29854;SDS011;16733;48.738;9.106;2022-08-19T12:48:31;8.27;;;4.68;;
29854;SDS011;16733;48.738;9.106;2022-08-19T12:50:57;7.38;;;4.78;;
29854;SDS011;16733;48.738;9.106;2022-08-19T12:53:23;6.65;;;3.85;;
29854;SDS011;16733;48.738;9.106;2022-08-19T12:55:56;5.50;;;3.85;;
29854;SDS011;16733;48.738;9.106;2022-08-19T12:58:23;7.82;;;4.78;;
29854;SDS011;16733;48.738;9.106;2022-08-19T13:00:48;18.25;;;9.15;;
29854;SDS011;16733;48.738;9.106;2022-08-19T13:03:14;8.20;;;4.50;;
29854;SDS011;16733;48.738;9.106;2022-08-19T13:09:02;9.88;;;5.22;;
29854;SDS011;16733;48.738;9.106;2022-08-19T13:11:29;6.93;;;4.75;;
29854;SDS011;16733;48.738;9.106;2022-08-19T13:17:19;6.95;;;4.30;;
29854;SDS011;16733;48.738;9.106;2022-08-19T13:19:45;11.07;;;6.40;;
29854;SDS011;16733;48.738;9.106;2022-08-19T13:22:11;10.02;;;6.30;;
29854;SDS011;16733;48.738;9.106;2022-08-19T13:27:59;13.00;;;7.38;;
29854;SDS011;16733;48.738;9.106;2022-08-19T13:30:24;13.35;;;6.75;;
29854;SDS011;16733;48.738;9.106;2022-08-19T13:36:32;15.83;;;8.40;;
29854;SDS011;16733;48.738;9.106;2022-08-19T13:38:58;13.95;;;8.70;;
29854;SDS011;16733;48.738;9.106;2022-08-19T13:44:46;19.40;;;8.77;;
29854;SDS011;16733;48.738;9.106;2022-08-19T13:47:12;10.55;;;6.88;;
29854;SDS011;16733;48.738;9.106;2022-08-19T13:49:39;13.80;;;7.70;;
29854;SDS011;16733;48.738;9.106;2022-08-19T13:52:05;15.57;;;7.95;;
29854;SDS011;16733;48.738;9.106;2022-08-19T13:54:30;16.45;;;8.73;;
29854;SDS011;16733;48.738;9.106;2022-08-19T13:56:56;17.33;;;9.15;;
29854;SDS011;16733;48.738;9.106;2022-08-19T13:59:22;13.48;;;7.78;;
29854;SDS011;16733;48.738;9.106;2022-08-19T14:01:47;16.83;;;8.57;;
29854;SDS011;16733;48.738;9.106;2022-08-19T14:04:14;13.15;;;7.90;;
29854;SDS011;16733;48.738;9.106;2022-08-19T14:06:40;14.93;;;7.70;;
29854;SDS011;16733;48.738;9.106;2022-08-19T14:09:05;13.05;;;7.53;;
29854;SDS011;16733;48.738;9.106;2022-08-19T14:11:32;11.70;;;7.45;;
29854;SDS011;16733;48.738;9.106;2022-08-19T14:13:58;12.65;;;7.82;;
29854;SDS011;16733;48.738;9.106;2022-08-19T14:16:23;13.68;;;7.95;;
29854;SDS011;16733;48.738;9.106;2022-08-19T14:18:49;13.25;;;7.68;;
29854;SDS011;16733;48.738;9.106;2022-08-19T14:21:16;14.07;;;7.90;;
29854;SDS011;16733;48.738;9.106;2022-08-19T14:23:45;16.92;;;8.35;;
29854;SDS011;16733;48.738;9.106;2022-08-19T14:26:13;18.05;;;8.65;;
29854;SDS011;16733;48.738;9.106;2022-08-19T14:28:40;17.05;;;8.75;;
29854;SDS011;16733;48.738;9.106;2022-08-19T14:34:29;15.95;;;9.25;;
29854;SDS011;16733;48.738;9.106;2022-08-19T14:36:56;13.35;;;8.60;;
29854;SDS011;16733;48.738;9.106;2022-08-19T14:42:44;15.82;;;9.68;;
29854;SDS011;16733;48.738;9.106;2022-08-19T14:45:10;14.98;;;9.02;;
29854;SDS011;16733;48.738;9.106;2022-08-19T14:47:37;15.43;;;8.75;;
29854;SDS011;16733;48.738;9.106;2022-08-19T14:50:03;13.20;;;7.70;;
29854;SDS011;16733;48.738;9.106;2022-08-19T14:52:31;15.30;;;7.22;;
29854;SDS011;16733;48.738;9.106;2022-08-19T14:54:57;16.38;;;8.00;;
29854;SDS011;16733;48.738;9.106;2022-08-19T14:57:23;11.90;;;7.35;;
29854;SDS011;16733;48.738;9.106;2022-08-19T14:59:48;13.73;;;6.90;;
29854;SDS011;16733;48.738;9.106;2022-08-19T15:02:14;13.13;;;6.45;;
29854;SDS011;16733;48.738;9.106;2022-08-19T15:04:40;17.42;;;9.13;;
29854;SDS011;16733;48.738;9.106;2022-08-19T15:07:05;10.98;;;6.72;;
29854;SDS011;16733;48.738;9.106;2022-08-19T15:09:32;10.50;;;7.10;;
29854;SDS011;16733;48.738;9.106;2022-08-19T15:11:58;10.77;;;6.40;;
29854;SDS011;16733;48.738;9.106;2022-08-19T15:14:25;10.70;;;6.50;;
29854;SDS011;16733;48.738;9.106;2022-08-19T15:20:15;12.30;;;6.70;;
29854;SDS011;16733;48.738;9.106;2022-08-19T15:22:43;10.65;;;6.32;;
29854;SDS011;16733;48.738;9.106;2022-08-19T15:28:34;12.40;;;6.23;;
29854;SDS011;16733;48.738;9.106;2022-08-19T15:31:00;9.13;;;5.65;;
29854;SDS011;16733;48.738;9.106;2022-08-19T15:33:26;9.90;;;6.40;;
29854;SDS011;16733;48.738;9.106;2022-08-19T15:35:52;12.10;;;5.78;;
29854;SDS011;16733;48.738;9.106;2022-08-19T15:38:19;9.68;;;5.95;;
29854;SDS011;16733;48.738;9.106;2022-08-19T15:40:46;10.00;;;5.68;;
29854;SDS011;16733;48.738;9.106;2022-08-19T15:47:31;10.20;;;5.47;;
29854;SDS011;16733;48.738;9.106;2022-08-19T15:49:57;11.43;;;6.13;;
29854;SDS011;16733;48.738;9.106;2022-08-19T15:52:23;12.25;;;6.35;;
29854;SDS011;16733;48.738;9.106;2022-08-19T15:54:49;7.32;;;5.43;;
29854;SDS011;16733;48.738;9.106;2022-08-19T15:57:15;9.75;;;6.63;;
29854;SDS011;16733;48.738;9.106;2022-08-19T15:59:46;8.73;;;6.15;;
29854;SDS011;16733;48.738;9.106;2022-08-19T16:02:31;6.55;;;4.22;;
29854;SDS011;16733;48.738;9.106;2022-08-19T16:05:18;7.20;;;4.95;;
29854;SDS011;16733;48.738;9.106;2022-08-19T16:08:04;6.35;;;4.18;;
29854;SDS011;16733;48.738;9.106;2022-08-19T16:10:30;4.22;;;3.08;;
29854;SDS011;16733;48.738;9.106;2022-08-19T16:12:59;5.15;;;3.30;;
29854;SDS011;16733;48.738;9.106;2022-08-19T16:15:26;4.20;;;2.85;;
29854;SDS011;16733;48.738;9.106;2022-08-19T16:17:58;6.75;;;2.90;;
29854;SDS011;16733;48.738;9.106;2022-08-19T16:20:27;3.33;;;2.70;;
29854;SDS011;16733;48.738;9.106;2022-08-19T16:22:54;6.70;;;3.55;;
29854;SDS011;16733;48.738;9.106;2022-08-19T16:25:22;6.28;;;3.17;;
29854;SDS011;16733;48.738;9.106;2022-08-19T16:27:51;4.22;;;3.28;;
29854;SDS011;16733;48.738;9.106;2022-08-19T16:33:40;5.80;;;3.15;;
29854;SDS011;16733;48.738;9.106;2022-08-19T16:39:29;7.45;;;4.95;;
29854;SDS011;16733;48.738;9.106;2022-08-19T16:41:54;11.90;;;5.43;;
29854;SDS011;16733;48.738;9.106;2022-08-19T16:44:20;8.75;;;5.38;;
29854;SDS011;16733;48.738;9.106;2022-08-19T16:46:46;9.02;;;6.05;;
29854;SDS011;16733;48.738;9.106;2022-08-19T16:49:12;9.75;;;5.68;;
29854;SDS011;16733;48.738;9.106;2022-08-19T16:51:39;16.98;;;8.52;;
29854;SDS011;16733;48.738;9.106;2022-08-19T16:54:06;15.02;;;6.05;;
29854;SDS011;16733;48.738;9.106;2022-08-19T16:56:35;10.18;;;6.30;;
29854;SDS011;16733;48.738;9.106;2022-08-19T17:02:24;13.40;;;7.57;;
29854;SDS011;16733;48.738;9.106;2022-08-19T17:04:49;12.82;;;7.82;;
29854;SDS011;16733;48.738;9.106;2022-08-19T17:10:38;13.73;;;7.70;;
29854;SDS011;16733;48.738;9.106;2022-08-19T17:13:04;16.42;;;8.52;;
29854;SDS011;16733;48.738;9.106;2022-08-19T17:15:31;12.80;;;7.90;;
29854;SDS011;16733;48.738;9.106;2022-08-19T17:18:00;14.30;;;8.20;;
29854;SDS011;16733;48.738;9.106;2022-08-19T17:20:29;14.63;;;7.75;;
29854;SDS011;16733;48.738;9.106;2022-08-19T17:29:39;18.93;;;9.13;;
29854;SDS011;16733;48.738;9.106;2022-08-19T17:32:05;16.10;;;8.85;;
29854;SDS011;16733;48.738;9.106;2022-08-19T17:37:53;16.15;;;9.55;;
29854;SDS011;16733;48.738;9.106;2022-08-19T17:40:19;14.45;;;8.77;;
29854;SDS011;16733;48.738;9.106;2022-08-19T17:46:07;15.20;;;8.93;;
29854;SDS011;16733;48.738;9.106;2022-08-19T17:48:34;16.27;;;8.85;;
29854;SDS011;16733;48.738;9.106;2022-08-19T17:54:24;16.90;;;9.80;;
29854;SDS011;16733;48.738;9.106;2022-08-19T17:56:50;16.83;;;9.77;;
29854;SDS011;16733;48.738;9.106;2022-08-19T17:59:16;15.20;;;8.57;;
29854;SDS011;16733;48.738;9.106;2022-08-19T18:01:43;15.35;;;9.77;;
29854;SDS011;16733;48.738;9.106;2022-08-19T18:04:10;17.02;;;9.77;;
29854;SDS011;16733;48.738;9.106;2022-08-19T18:06:36;18.02;;;10.38;;
29854;SDS011;16733;48.738;9.106;2022-08-19T18:09:05;15.55;;;9.90;;
29854;SDS011;16733;48.738;9.106;2022-08-19T18:11:32;17.90;;;10.18;;
29854;SDS011;16733;48.738;9.106;2022-08-19T18:17:21;16.93;;;9.83;;
29854;SDS011;16733;48.738;9.106;2022-08-19T18:19:48;15.65;;;9.48;;
29854;SDS011;16733;48.738;9.106;2022-08-19T18:25:42;18.95;;;10.43;;
29854;SDS011;16733;48.738;9.106;2022-08-19T18:28:08;17.33;;;9.85;;
29854;SDS011;16733;48.738;9.106;2022-08-19T18:30:33;18.77;;;10.25;;
29854;SDS011;16733;48.738;9.106;2022-08-19T18:36:22;18.20;;;10.00;;
29854;SDS011;16733;48.738;9.106;2022-08-19T18:38:47;17.08;;;10.07;;
29854;SDS011;16733;48.738;9.106;2022-08-19T18:41:31;17.20;;;9.95;;
29854;SDS011;16733;48.738;9.106;2022-08-19T18:44:15;17.05;;;10.30;;
29854;SDS011;16733;48.738;9.106;2022-08-19T18:47:00;20.40;;;11.02;;
29854;SDS011;16733;48.738;9.106;2022-08-19T18:49:44;16.80;;;10.05;;
29854;SDS011;16733;48.738;9.106;2022-08-19T18:52:09;18.63;;;9.68;;
29854;SDS011;16733;48.738;9.106;2022-08-19T18:54:35;19.23;;;9.02;;
29854;SDS011;16733;48.738;9.106;2022-08-19T18:57:01;20.33;;;9.13;;
29854;SDS011;16733;48.738;9.106;2022-08-19T18:59:30;12.60;;;8.13;;
29854;SDS011;16733;48.738;9.106;2022-08-19T19:01:57;12.70;;;8.38;;
29854;SDS011;16733;48.738;9.106;2022-08-19T19:04:28;15.48;;;9.05;;
29854;SDS011;16733;48.738;9.106;2022-08-19T19:13:56;15.48;;;9.43;;
29854;SDS011;16733;48.738;9.106;2022-08-19T19:16:24;15.95;;;8.95;;
29854;SDS011;16733;48.738;9.106;2022-08-19T19:22:13;12.32;;;7.50;;
29854;SDS011;16733;48.738;9.106;2022-08-19T19:24:41;11.13;;;7.50;;
29854;SDS011;16733;48.738;9.106;2022-08-19T19:30:31;11.35;;;6.38;;
29854;SDS011;16733;48.738;9.106;2022-08-19T19:32:57;8.02;;;5.00;;
29854;SDS011;16733;48.738;9.106;2022-08-19T19:35:26;6.80;;;4.40;;
29854;SDS011;16733;48.738;9.106;2022-08-19T19:37:53;6.63;;;4.38;;
29854;SDS011;16733;48.738;9.106;2022-08-19T19:40:20;8.98;;;5.40;;
29854;SDS011;16733;48.738;9.106;2022-08-19T19:42:46;6.63;;;4.40;;
29854;SDS011;16733;48.738;9.106;2022-08-19T19:45:12;5.63;;;3.70;;
29854;SDS011;16733;48.738;9.106;2022-08-19T19:47:42;5.78;;;3.72;;
29854;SDS011;16733;48.738;9.106;2022-08-19T19:50:09;7.20;;;3.65;;
29854;SDS011;16733;48.738;9.106;2022-08-19T19:52:35;6.93;;;4.32;;
29854;SDS011;16733;48.738;9.106;2022-08-19T19:55:01;7.45;;;4.13;;
29854;SDS011;16733;48.738;9.106;2022-08-19T19:57:27;4.65;;;3.22;;
29854;SDS011;16733;48.738;9.106;2022-08-19T19:59:54;6.45;;;3.25;;
29854;SDS011;16733;48.738;9.106;2022-08-19T20:02:20;4.78;;;3.03;;
29854;SDS011;16733;48.738;9.106;2022-08-19T20:04:46;4.15;;;2.17;;
29854;SDS011;16733;48.738;9.106;2022-08-19T20:07:12;4.57;;;2.50;;
29854;SDS011;16733;48.738;9.106;2022-08-19T20:09:37;3.53;;;2.58;;
29854;SDS011;16733;48.738;9.106;2022-08-19T20:12:04;2.83;;;2.25;;